.
WxDataArchive / Data Records for 2006-01-21
2006-01-20 January 2006 2006-01-22

Data Records for Saturday, 21 January 2006

Time	Temp	Chill	HIndex	Humid	Dewpt	 Wind 	HiWind	WindDir	Rain 	Barom 
-----	----	-----	------	-----	-----	------	------	-------	-----	----- 
00:00	53.2	53.2	53.2	80	47.2	3	13	248	0.00	29.704 
00:05	53.6	53.6	53.6	79	47.2	4	11	248	0.00	29.704 
00:10	53.9	53.9	53.9	78	47.2	4	8	248	0.00	29.704 
00:15	54.2	54.2	54.2	77	47.1	4	12	270	0.00	29.693 
00:20	54.7	54.7	54.7	76	47.3	6	13	270	0.00	29.693 
00:25	54.8	54.8	54.8	76	47.4	4	11	270	0.00	29.693 
00:30	55.0	55.0	55.0	75	47.2	5	13	270	0.00	29.683 
00:35	55.1	55.1	55.1	74	47.0	5	11	248	0.00	29.683 
00:40	55.1	55.1	55.1	74	47.0	5	13	270	0.00	29.683 
00:45	55.3	55.3	55.3	74	47.2	5	14	248	0.00	29.681 
00:50	55.3	55.3	55.3	74	47.2	5	15	270	0.00	29.681 
00:55	55.4	55.4	55.4	73	46.9	6	18	248	0.00	29.681 
01:00	55.6	55.6	55.6	73	47.1	5	14	248	0.00	29.675 
01:05	55.6	55.6	55.6	73	47.1	5	21	248	0.00	29.675 
01:10	55.6	55.6	55.6	73	47.1	6	14	270	0.00	29.675 
01:15	55.6	55.6	55.6	72	46.7	6	15	225	0.00	29.672 
01:20	55.6	55.6	55.6	72	46.7	6	16	248	0.00	29.672 
01:25	55.6	55.6	55.6	72	46.7	7	15	248	0.00	29.672 
01:30	55.6	55.6	55.6	73	47.1	5	12	248	0.00	29.672 
01:35	55.6	55.6	55.6	72	46.7	8	14	270	0.00	29.672 
01:40	55.6	55.6	55.6	72	46.7	7	14	270	0.00	29.672 
01:45	54.5	54.5	54.5	74	46.4	6	13	270	0.00	29.704 
01:50	49.9	48.8	49.9	80	44.0	4	9	270	0.01	29.704 
01:55	46.5	46.5	46.5	83	41.6	3	6	338	0.00	29.704 
02:00	44.1	42.1	44.1	84	39.6	4	8	292	0.00	29.742 
02:05	42.2	39.9	42.2	86	38.3	4	10	270	0.00	29.742 
02:10	40.5	37.1	40.5	87	36.9	5	12	315	0.01	29.742 
02:15	39.2	36.4	39.2	88	35.9	4	11	292	0.00	29.774 
02:20	38.3	38.3	38.3	89	35.3	3	9	315	0.01	29.774 
02:25	37.6	37.6	37.6	89	34.7	3	11	315	0.02	29.774 
02:30	36.8	33.6	36.8	88	33.6	4	12	315	0.01	29.789 
02:35	36.2	36.2	36.2	89	33.3	3	8	292	0.00	29.789 
02:40	36.0	36.0	36.0	90	33.4	2	7	315	0.01	29.789 
02:45	36.0	36.0	36.0	91	33.6	1	5	0	0.00	29.782 
02:50	35.8	35.8	35.8	90	33.2	2	6	338	0.00	29.782 
02:55	35.8	35.8	35.8	91	33.4	1	4	0	0.00	29.782 
03:00	35.6	35.6	35.6	91	33.2	1	3	338	0.00	29.790 
03:05	35.5	35.5	35.5	91	33.1	1	2	338	0.00	29.790 
03:10	35.5	35.5	35.5	91	33.1	1	5	0	0.00	29.790 
03:15	35.3	35.3	35.3	91	32.9	1	3	292	0.00	29.809 
03:20	35.5	35.5	35.5	91	33.1	0	2	270	0.00	29.809 
03:25	35.3	35.3	35.3	91	32.9	1	2	292	0.01	29.809 
03:30	35.3	35.3	35.3	91	32.9	1	3	270	0.00	29.807 
03:35	35.2	35.2	35.2	92	33.1	0	2	338	0.02	29.807 
03:40	35.2	35.2	35.2	92	33.1	0	2	338	0.01	29.807 
03:45	35.2	35.2	35.2	92	33.1	0	1	315	0.00	29.808 
03:50	35.0	35.0	35.0	92	32.9	0	2	315	0.01	29.808 
03:55	35.0	35.0	35.0	92	32.9	0	1	315	0.01	29.808 
04:00	34.9	34.9	34.9	92	32.8	0	2	315	0.00	29.795 
04:05	34.9	34.9	34.9	92	32.8	1	2	315	0.00	29.795 
04:10	34.9	34.9	34.9	92	32.8	0	3	248	0.00	29.795 
04:15	34.9	34.9	34.9	92	32.8	0	2	248	0.00	29.806 
04:20	34.7	34.7	34.7	92	32.6	0	1	248	0.00	29.806 
04:25	34.7	34.7	34.7	92	32.6	0	2	292	0.01	29.806 
04:30	34.7	34.7	34.7	92	32.6	0	2	292	0.00	29.806 
04:35	34.7	34.7	34.7	92	32.6	1	2	292	0.00	29.806 
04:40	34.9	34.9	34.9	93	33.1	0	2	292	0.00	29.806 
04:45	34.9	34.9	34.9	93	33.1	1	2	315	0.00	29.847 
04:50	34.9	34.9	34.9	93	33.1	2	4	270	0.00	29.847 
04:55	34.9	34.9	34.9	93	33.1	1	3	270	0.00	29.847 
05:00	34.9	34.9	34.9	92	32.8	2	6	270	0.00	29.890 
05:05	34.9	34.9	34.9	92	32.8	2	6	270	0.00	29.890 
05:10	35.0	35.0	35.0	92	32.9	2	7	270	0.00	29.890 
05:15	35.0	35.0	35.0	92	32.9	3	7	315	0.00	29.912 
05:20	35.0	35.0	35.0	91	32.6	3	10	292	0.00	29.912 
05:25	35.0	31.5	35.0	90	32.4	4	9	315	0.00	29.912 
05:30	34.9	31.4	34.9	90	32.3	4	12	292	0.00	29.902 
05:35	34.7	31.2	34.7	89	31.8	4	12	315	0.00	29.902 
05:40	34.7	31.2	34.7	89	31.8	4	11	315	0.00	29.902 
05:45	34.6	34.6	34.6	89	31.7	3	10	315	0.00	29.948 
05:50	34.3	30.7	34.3	88	31.1	4	15	292	0.00	29.948 
05:55	33.7	30.0	33.7	87	30.3	4	10	338	0.00	29.948 
06:00	33.5	29.8	33.5	87	30.1	4	13	338	0.00	29.968 
06:05	33.2	28.5	33.2	87	29.8	5	11	292	0.00	29.968 
06:10	33.1	29.3	33.1	88	29.9	4	9	292	0.00	29.968 
06:15	32.8	29.0	32.8	88	29.6	4	11	315	0.00	29.995 
06:20	32.7	28.9	32.7	89	29.8	4	13	292	0.00	29.995 
06:25	32.5	32.5	32.5	89	29.6	3	10	315	0.00	29.995 
06:30	32.5	32.5	32.5	89	29.6	3	10	315	0.00	30.016 
06:35	32.5	32.5	32.5	89	29.6	3	10	315	0.00	30.016 
06:40	32.5	32.5	32.5	89	29.6	3	7	315	0.00	30.016 
06:45	32.7	32.7	32.7	88	29.5	3	12	315	0.00	30.030 
06:50	32.7	32.7	32.7	88	29.5	3	11	292	0.00	30.030 
06:55	32.8	32.8	32.8	87	29.4	3	7	292	0.00	30.030 
07:00	32.8	32.8	32.8	87	29.4	3	10	315	0.00	30.035 
07:05	32.8	32.8	32.8	87	29.4	2	6	338	0.00	30.035 
07:10	32.8	32.8	32.8	86	29.1	3	6	338	0.00	30.035 
07:15	32.8	32.8	32.8	86	29.1	2	6	338	0.00	30.054 
07:20	32.9	32.9	32.9	86	29.2	3	8	338	0.00	30.054 
07:25	32.9	32.9	32.9	86	29.2	2	5	338	0.00	30.054 
07:30	32.9	32.9	32.9	85	28.9	2	4	270	0.00	30.074 
07:35	32.9	32.9	32.9	85	28.9	1	6	315	0.00	30.074 
07:40	32.9	32.9	32.9	85	28.9	2	7	0	0.00	30.074 
07:45	32.9	32.9	32.9	85	28.9	3	7	292	0.00	30.092 
07:50	32.8	32.8	32.8	84	28.5	2	5	338	0.00	30.092 
07:55	32.8	32.8	32.8	84	28.5	3	7	292	0.00	30.092 
08:00	32.8	32.8	32.8	84	28.5	2	6	315	0.00	30.121 
08:05	32.7	32.7	32.7	84	28.4	2	9	315	0.00	30.121 
08:10	32.7	32.7	32.7	84	28.4	2	6	292	0.00	30.121 
08:15	32.5	32.5	32.5	84	28.2	2	5	338	0.00	30.135 
08:20	32.5	32.5	32.5	84	28.2	2	4	0	0.00	30.135 
08:25	32.5	32.5	32.5	83	27.9	2	6	315	0.00	30.135 
08:30	32.7	32.7	32.7	83	28.1	2	4	270	0.00	30.151 
08:35	32.7	32.7	32.7	84	28.4	1	4	338	0.00	30.151 
08:40	32.8	32.8	32.8	83	28.2	2	5	292	0.00	30.151 
08:45	32.9	32.9	32.9	82	28.0	2	6	270	0.00	30.170 
08:50	33.1	33.1	33.1	82	28.2	1	3	292	0.00	30.170 
08:55	33.1	33.1	33.1	83	28.5	1	3	0	0.00	30.170 
09:00	33.1	33.1	33.1	82	28.2	1	3	0	0.00	30.180 
09:05	33.2	33.2	33.2	83	28.6	1	3	248	0.00	30.180 
09:10	33.4	33.4	33.4	82	28.5	1	3	292	0.00	30.180 
09:15	33.5	33.5	33.5	82	28.6	2	4	338	0.00	30.212 
09:20	33.7	33.7	33.7	82	28.8	2	5	292	0.00	30.212 
09:25	33.5	33.5	33.5	81	28.3	3	7	338	0.00	30.212 
09:30	33.7	33.7	33.7	81	28.5	2	7	338	0.00	30.240 
09:35	33.5	29.8	33.5	81	28.3	4	9	315	0.00	30.240 
09:40	33.5	33.5	33.5	81	28.3	3	9	270	0.00	30.240 
09:45	33.5	33.5	33.5	81	28.3	2	6	315	0.00	30.251 
09:50	33.5	33.5	33.5	81	28.3	2	4	315	0.00	30.251 
09:55	33.5	33.5	33.5	80	28.0	2	5	315	0.00	30.251 
10:00	33.4	33.4	33.4	81	28.2	2	7	338	0.00	30.271 
10:05	33.4	33.4	33.4	80	27.9	2	8	338	0.00	30.271 
10:10	33.4	33.4	33.4	79	27.6	2	10	0	0.00	30.271 
10:15	33.5	33.5	33.5	79	27.7	2	5	338	0.00	30.279 
10:20	33.7	33.7	33.7	80	28.2	2	9	0	0.00	30.279 
10:25	33.7	33.7	33.7	80	28.2	2	5	338	0.00	30.279 
10:30	33.8	33.8	33.8	80	28.3	2	5	292	0.00	30.291 
10:35	34.0	34.0	34.0	79	28.2	2	7	338	0.00	30.291 
10:40	34.1	34.1	34.1	77	27.7	2	6	338	0.00	30.291 
10:45	34.3	34.3	34.3	76	27.5	3	10	292	0.00	30.299 
10:50	34.4	34.4	34.4	75	27.3	2	6	0	0.00	30.299 
10:55	34.7	34.7	34.7	74	27.3	2	10	270	0.00	30.299 
11:00	34.7	34.7	34.7	74	27.3	3	7	315	0.00	30.308 
11:05	35.0	35.0	35.0	75	27.9	3	7	0	0.00	30.308 
11:10	35.0	35.0	35.0	74	27.6	2	6	0	0.00	30.308 
11:15	35.2	35.2	35.2	73	27.4	2	4	338	0.00	30.315 
11:20	35.3	35.3	35.3	74	27.9	2	6	270	0.00	30.315 
11:25	35.3	35.3	35.3	76	28.5	1	4	0	0.00	30.315 
11:30	35.5	35.5	35.5	73	27.7	2	5	338	0.00	30.321 
11:35	35.6	35.6	35.6	73	27.8	2	6	0	0.00	30.321 
11:40	35.8	35.8	35.8	71	27.3	2	6	0	0.00	30.321 
11:45	35.8	35.8	35.8	72	27.7	2	5	315	0.00	30.323 
11:50	36.2	36.2	36.2	72	28.1	2	4	292	0.00	30.323 
11:55	36.2	36.2	36.2	70	27.4	1	3	315	0.00	30.323 
12:00	35.9	35.9	35.9	71	27.4	1	4	0	0.00	30.328 
12:05	35.9	35.9	35.9	70	27.1	1	6	338	0.00	30.328 
12:10	35.9	35.9	35.9	71	27.4	2	5	0	0.00	30.328 
12:15	36.2	36.2	36.2	72	28.1	2	10	0	0.00	30.329 
12:20	36.5	36.5	36.5	72	28.3	1	3	22	0.00	30.329 
12:25	36.8	36.8	36.8	71	28.3	2	4	315	0.00	30.329 
12:30	36.5	36.5	36.5	69	27.3	2	4	292	0.00	30.329 
12:35	36.6	36.6	36.6	69	27.4	2	5	292	0.00	30.329 
12:40	36.5	36.5	36.5	70	27.7	1	4	0	0.00	30.329 
12:45	36.3	36.3	36.3	68	26.8	2	4	0	0.00	30.331 
12:50	36.5	36.5	36.5	69	27.3	1	4	315	0.00	30.331 
12:55	36.9	36.9	36.9	70	28.0	1	3	315	0.00	30.331 
13:00	37.0	37.0	37.0	68	27.4	1	4	292	0.00	30.332 
13:05	37.2	37.2	37.2	67	27.3	2	5	270	0.00	30.332 
13:10	37.5	37.5	37.5	66	27.2	2	4	292	0.00	30.332 
13:15	37.5	37.5	37.5	66	27.2	1	4	270	0.00	30.344 
13:20	37.6	37.6	37.6	66	27.3	1	3	270	0.00	30.344 
13:25	37.6	37.6	37.6	65	26.9	0	2	292	0.00	30.344 
13:30	37.9	37.9	37.9	66	27.6	1	3	0	0.00	30.344 
13:35	38.2	38.2	38.2	66	27.9	1	4	338	0.00	30.344 
13:40	38.3	38.3	38.3	65	27.6	1	4	270	0.00	30.344 
13:45	38.3	38.3	38.3	68	28.7	1	3	270	0.00	30.344 
13:50	38.5	38.5	38.5	65	27.8	1	4	315	0.00	30.344 
13:55	38.8	38.8	38.8	65	28.1	1	4	292	0.00	30.344 
14:00	38.8	38.8	38.8	63	27.3	1	3	338	0.00	30.347 
14:05	38.8	38.8	38.8	65	28.1	1	2	0	0.00	30.347 
14:10	38.8	38.8	38.8	62	26.9	1	3	22	0.00	30.347 
14:15	38.8	38.8	38.8	63	27.3	1	3	22	0.00	30.364 
14:20	38.8	38.8	38.8	64	27.7	1	4	22	0.00	30.364 
14:25	39.1	39.1	39.1	62	27.2	2	4	270	0.00	30.364 
14:30	39.2	39.2	39.2	61	26.9	0	2	292	0.00	30.366 
14:35	39.5	39.5	39.5	66	29.1	1	3	292	0.00	30.366 
14:40	39.3	39.3	39.3	62	27.4	1	2	338	0.00	30.366 
14:45	39.5	39.5	39.5	60	26.8	0	1	338	0.00	30.372 
14:50	39.8	39.8	39.8	62	27.9	0	2	338	0.00	30.372 
14:55	40.2	40.2	40.2	59	27.0	1	2	315	0.00	30.372 
15:00	40.2	40.2	40.2	62	28.2	1	4	315	0.00	30.379 
15:05	40.3	40.3	40.3	58	26.7	1	6	248	0.00	30.379 
15:10	40.2	40.2	40.2	58	26.6	1	3	338	0.00	30.379 
15:15	40.1	40.1	40.1	59	26.9	1	2	338	0.00	30.386 
15:20	40.2	40.2	40.2	59	27.0	1	3	22	0.00	30.386 
15:25	40.3	40.3	40.3	61	27.9	1	3	292	0.00	30.386 
15:30	40.5	40.5	40.5	59	27.3	1	3	248	0.00	30.394 
15:35	40.8	40.8	40.8	59	27.6	1	2	225	0.00	30.394 
15:40	41.1	41.1	41.1	58	27.5	1	2	225	0.00	30.394 
15:45	41.3	41.3	41.3	58	27.7	0	3	248	0.00	30.398 
15:50	41.5	41.5	41.5	56	27.0	1	2	248	0.00	30.398 
15:55	41.1	41.1	41.1	55	26.2	0	2	248	0.00	30.398 
16:00	41.2	41.2	41.2	58	27.6	1	3	248	0.00	30.400 
16:05	41.3	41.3	41.3	59	28.1	1	3	248	0.00	30.400 
16:10	41.1	41.1	41.1	58	27.5	1	2	248	0.00	30.400 
16:15	41.1	41.1	41.1	58	27.5	1	5	248	0.00	30.406 
16:20	41.2	41.2	41.2	58	27.6	0	3	248	0.00	30.406 
16:25	41.1	41.1	41.1	57	27.0	1	3	248	0.00	30.406 
16:30	40.8	40.8	40.8	56	26.3	1	2	270	0.00	30.411 
16:35	40.5	40.5	40.5	57	26.5	0	2	270	0.00	30.411 
16:40	40.2	40.2	40.2	58	26.6	0	2	270	0.00	30.411 
16:45	39.9	39.9	39.9	57	25.9	0	1	270	0.00	30.418 
16:50	39.8	39.8	39.8	58	26.2	0	1	270	0.00	30.418 
16:55	39.6	39.6	39.6	58	26.1	0	1	270	0.00	30.418 
17:00	39.5	39.5	39.5	59	26.4	0	1	270	0.00	30.428 
17:05	39.3	39.3	39.3	59	26.2	0	0	---	0.00	30.428 
17:10	39.2	39.2	39.2	60	26.5	0	0	---	0.00	30.428 
17:15	38.9	38.9	38.9	61	26.6	0	1	270	0.00	30.432 
17:20	38.6	38.6	38.6	62	26.7	0	0	---	0.00	30.432 
17:25	38.5	38.5	38.5	62	26.6	0	0	---	0.00	30.432 
17:30	38.0	38.0	38.0	62	26.2	0	0	---	0.00	30.434 
17:35	37.6	37.6	37.6	63	26.2	0	0	---	0.00	30.434 
17:40	37.2	37.2	37.2	64	26.2	0	0	---	0.00	30.434 
17:45	36.8	36.8	36.8	64	25.8	0	0	---	0.00	30.442 
17:50	36.5	36.5	36.5	65	25.9	0	0	---	0.00	30.442 
17:55	36.0	36.0	36.0	66	25.8	0	0	---	0.00	30.442 
18:00	35.6	35.6	35.6	67	25.7	0	0	---	0.00	30.447 
18:05	35.0	35.0	35.0	68	25.5	0	0	---	0.00	30.447 
18:10	34.6	34.6	34.6	70	25.8	0	0	---	0.00	30.447 
18:15	34.1	34.1	34.1	71	25.7	0	0	---	0.00	30.454 
18:20	33.8	33.8	33.8	74	26.4	0	0	---	0.00	30.454 
18:25	33.4	33.4	33.4	74	26.0	0	0	---	0.00	30.454 
18:30	32.9	32.9	32.9	74	25.5	0	0	---	0.00	30.459 
18:35	32.7	32.7	32.7	76	26.0	0	0	---	0.00	30.459 
18:40	32.4	32.4	32.4	76	25.7	0	0	---	0.00	30.459 
18:45	32.1	32.1	32.1	77	25.7	0	0	---	0.00	30.467 
18:50	31.8	31.8	31.8	77	25.4	0	0	---	0.00	30.467 
18:55	31.5	31.5	31.5	79	25.8	0	0	---	0.00	30.467 
19:00	31.2	31.2	31.2	80	25.8	0	0	---	0.00	30.471 
19:05	30.9	30.9	30.9	80	25.5	0	0	---	0.00	30.471 
19:10	30.4	30.4	30.4	80	25.0	0	0	---	0.00	30.471 
19:15	30.1	30.1	30.1	81	25.0	0	0	---	0.00	30.474 
19:20	29.8	29.8	29.8	82	25.0	0	0	---	0.00	30.474 
19:25	29.7	29.7	29.7	83	25.2	0	0	---	0.00	30.474 
19:30	29.4	29.4	29.4	84	25.2	0	0	---	0.00	30.480 
19:35	29.3	29.3	29.3	84	25.1	0	0	---	0.00	30.480 
19:40	29.0	29.0	29.0	84	24.8	0	0	---	0.00	30.480 
19:45	29.0	29.0	29.0	85	25.1	0	0	---	0.00	30.485 
19:50	28.8	28.8	28.8	86	25.2	0	0	---	0.00	30.485 
19:55	28.8	28.8	28.8	86	25.2	0	0	---	0.00	30.485 
20:00	28.7	28.7	28.7	86	25.1	0	0	---	0.00	30.488 
20:05	28.5	28.5	28.5	86	24.9	0	0	---	0.00	30.488 
20:10	28.2	28.2	28.2	86	24.6	0	0	---	0.00	30.488 
20:15	28.1	28.1	28.1	86	24.5	0	0	---	0.00	30.490 
20:20	27.9	27.9	27.9	87	24.5	0	0	---	0.00	30.490 
20:25	27.8	27.8	27.8	87	24.4	0	0	---	0.00	30.490 
20:30	27.6	27.6	27.6	88	24.5	0	0	---	0.00	30.492 
20:35	27.5	27.5	27.5	88	24.4	0	0	---	0.00	30.492 
20:40	27.3	27.3	27.3	88	24.2	0	0	---	0.00	30.492 
20:45	27.2	27.2	27.2	88	24.1	0	0	---	0.00	30.494 
20:50	27.0	27.0	27.0	88	23.9	0	0	---	0.00	30.494 
20:55	27.0	27.0	27.0	89	24.2	0	0	---	0.00	30.494 
21:00	27.0	27.0	27.0	89	24.2	0	0	---	0.00	30.493 
21:05	27.0	27.0	27.0	90	24.5	0	0	---	0.00	30.493 
21:10	26.9	26.9	26.9	90	24.4	0	0	---	0.00	30.493 
21:15	26.7	26.7	26.7	90	24.2	0	0	---	0.00	30.491 
21:20	26.6	26.6	26.6	90	24.1	0	0	---	0.00	30.491 
21:25	26.6	26.6	26.6	90	24.1	0	0	---	0.00	30.491 
21:30	26.6	26.6	26.6	90	24.1	0	0	---	0.00	30.494 
21:35	26.4	26.4	26.4	90	23.9	0	0	---	0.00	30.494 
21:40	26.4	26.4	26.4	90	23.9	0	0	---	0.00	30.494 
21:45	26.4	26.4	26.4	91	24.1	0	0	---	0.00	30.494 
21:50	26.4	26.4	26.4	91	24.1	0	0	---	0.00	30.494 
21:55	26.4	26.4	26.4	91	24.1	0	0	---	0.00	30.494 
22:00	26.3	26.3	26.3	91	24.0	0	0	---	0.00	30.499 
22:05	26.1	26.1	26.1	91	23.8	0	0	---	0.00	30.499 
22:10	26.0	26.0	26.0	91	23.7	0	0	---	0.00	30.499 
22:15	25.8	25.8	25.8	91	23.5	0	0	---	0.00	30.502 
22:20	25.8	25.8	25.8	91	23.5	0	0	---	0.00	30.502 
22:25	25.7	25.7	25.7	91	23.4	0	0	---	0.00	30.502 
22:30	25.4	25.4	25.4	91	23.1	0	0	---	0.00	30.507 
22:35	25.3	25.3	25.3	91	23.0	0	0	---	0.00	30.507 
22:40	25.1	25.1	25.1	91	22.9	0	0	---	0.00	30.507 
22:45	25.0	25.0	25.0	91	22.8	0	0	---	0.00	30.508 
22:50	24.8	24.8	24.8	91	22.6	0	0	---	0.00	30.508 
22:55	24.8	24.8	24.8	90	22.3	0	0	---	0.00	30.508 
23:00	24.7	24.7	24.7	91	22.5	0	0	---	0.00	30.510 
23:05	24.7	24.7	24.7	91	22.5	0	0	---	0.00	30.510 
23:10	24.7	24.7	24.7	91	22.5	0	0	---	0.00	30.510 
23:15	24.7	24.7	24.7	91	22.5	0	0	---	0.00	30.516 
23:20	24.5	24.5	24.5	91	22.3	0	0	---	0.00	30.516 
23:25	24.5	24.5	24.5	91	22.3	0	0	---	0.00	30.516 
23:30	24.5	24.5	24.5	92	22.5	0	0	---	0.00	30.515 
23:35	24.5	24.5	24.5	92	22.5	0	0	---	0.00	30.515 
23:40	24.4	24.4	24.4	91	22.2	0	0	---	0.00	30.515 
23:45	24.4	24.4	24.4	91	22.2	0	0	---	0.00	30.510 
23:50	24.2	24.2	24.2	92	22.2	0	0	---	0.00	30.510 
23:55	24.2	24.2	24.2	92	22.2	0	0	---	0.00	30.510 

CoCoRaHS
IN-AL-39
A2 Web Hosting
Creative Commons License
GoDaddy
Look for:

loaded 2017-10-19 20:10:14 • last modified 2010-11-18 10:43:29
Privacy PolicyDisclaimer
• wx.awcolley.com is powered by PmWiki v.2002016 •
• all content (unless otherwise noted) © 2017 A W Colley